createdAt,value
2023-01-22T00:02:42.475Z,46.20
2023-01-22T00:05:32.481Z,41.10
2023-01-22T00:08:22.482Z,45.30
2023-01-22T00:11:12.457Z,46.83
2023-01-22T00:14:02.524Z,45.92
2023-01-22T00:16:53.070Z,48.60
2023-01-22T00:19:43.525Z,45.67
2023-01-22T00:22:33.741Z,47.13
2023-01-22T00:25:24.036Z,42.40
2023-01-22T00:28:14.250Z,45.28
2023-01-22T00:31:06.103Z,38.13
2023-01-22T00:33:56.527Z,40.35
2023-01-22T00:36:46.801Z,38.28
2023-01-22T00:39:39.176Z,39.83
2023-01-22T00:42:28.993Z,39.72
2023-01-22T00:45:19.487Z,41.83
2023-01-22T00:48:09.442Z,37.20
2023-01-22T00:50:59.562Z,40.15
2023-01-22T00:53:49.735Z,36.30
2023-01-22T00:56:39.576Z,41.97
2023-01-22T00:59:29.517Z,39.67
2023-01-22T01:02:19.430Z,41.13
2023-01-22T01:05:09.343Z,38.00
2023-01-22T01:07:59.503Z,40.95
2023-01-22T01:10:57.162Z,38.42
2023-01-22T01:13:48.280Z,42.80
2023-01-22T01:16:38.383Z,39.08
2023-01-22T01:19:28.147Z,40.05
2023-01-22T01:22:18.260Z,37.17
2023-01-22T01:25:08.408Z,38.25
2023-01-22T01:27:59.723Z,41.30
2023-01-22T01:30:50.637Z,36.15
2023-01-22T01:33:41.364Z,40.30
2023-01-22T01:36:47.683Z,40.30
2023-01-22T01:39:38.830Z,39.00
2023-01-22T01:42:35.569Z,40.97
2023-01-22T01:45:34.136Z,35.85
2023-01-22T01:48:30.459Z,36.22
2023-01-22T01:51:29.630Z,33.78
2023-01-22T01:54:19.848Z,39.13
2023-01-22T01:57:14.675Z,38.33
2023-01-22T02:00:10.725Z,34.17
2023-01-22T02:03:04.293Z,35.97
2023-01-22T02:05:54.725Z,32.70
2023-01-22T02:08:48.289Z,34.28
2023-01-22T02:11:40.292Z,36.47
2023-01-22T02:14:33.727Z,36.28
2023-01-22T02:17:23.824Z,25.17
2023-01-22T02:20:14.922Z,32.25
2023-01-22T02:23:05.533Z,34.85
2023-01-22T02:25:57.612Z,34.08
2023-01-22T02:28:48.004Z,31.88
2023-01-22T02:31:39.373Z,35.10
2023-01-22T02:34:29.661Z,35.67
2023-01-22T02:37:19.726Z,35.35
2023-01-22T02:40:12.112Z,34.70
2023-01-22T02:43:03.037Z,38.70
2023-01-22T02:45:54.109Z,34.22
2023-01-22T02:48:44.232Z,40.75
2023-01-22T02:51:34.859Z,34.25
2023-01-22T02:54:25.454Z,35.55
2023-01-22T02:57:15.564Z,33.53
2023-01-22T03:00:06.738Z,39.38
2023-01-22T03:02:56.871Z,35.00
2023-01-22T03:05:51.336Z,35.92
2023-01-22T03:08:43.522Z,38.92
2023-01-22T03:11:35.671Z,43.95
2023-01-22T03:14:47.172Z,38.10
2023-01-22T03:17:56.923Z,42.38
2023-01-22T03:21:05.631Z,42.58
2023-01-22T03:23:55.864Z,40.15
2023-01-22T03:26:45.970Z,42.17
2023-01-22T03:29:39.402Z,47.10
2023-01-22T03:32:31.738Z,42.72
2023-01-22T03:35:22.767Z,51.85
2023-01-22T03:38:30.056Z,44.15
2023-01-22T03:41:20.712Z,43.67
2023-01-22T03:44:14.204Z,59.67
2023-01-22T03:47:05.367Z,72.85
2023-01-22T03:49:56.216Z,78.82
2023-01-22T03:52:46.703Z,60.08
2023-01-22T03:55:37.166Z,50.03
2023-01-22T03:58:29.957Z,56.17
2023-01-22T04:01:28.463Z,68.10
2023-01-22T04:04:20.571Z,61.83
2023-01-22T04:07:10.796Z,48.42
2023-01-22T04:10:01.403Z,54.90
2023-01-22T04:12:54.224Z,59.35
2023-01-22T04:15:46.386Z,56.05
2023-01-22T04:18:59.303Z,46.90
2023-01-22T04:22:08.028Z,37.22
2023-01-22T04:24:58.533Z,38.92
2023-01-22T04:27:48.688Z,33.85
2023-01-22T04:30:43.449Z,35.83
2023-01-22T04:33:54.107Z,35.80
2023-01-22T04:36:49.557Z,34.92
2023-01-22T04:39:40.379Z,35.67
2023-01-22T04:42:30.138Z,35.20
2023-01-22T04:45:20.167Z,35.80
2023-01-22T04:48:11.329Z,41.67
2023-01-22T04:51:03.511Z,38.90
2023-01-22T04:53:55.807Z,34.25
2023-01-22T04:56:46.207Z,37.80
2023-01-22T04:59:37.419Z,37.88
2023-01-22T05:02:27.655Z,33.15
2023-01-22T05:05:17.931Z,39.22
2023-01-22T05:08:07.863Z,35.78
2023-01-22T05:11:03.791Z,39.05
2023-01-22T05:14:06.168Z,35.85
2023-01-22T05:16:56.170Z,35.88
2023-01-22T05:19:46.772Z,39.80
2023-01-22T05:22:42.430Z,38.42
2023-01-22T05:25:33.320Z,39.28
2023-01-22T05:28:24.694Z,39.80
2023-01-22T05:31:31.042Z,36.42
2023-01-22T05:34:25.970Z,36.22
2023-01-22T05:37:16.465Z,40.47
2023-01-22T05:40:07.712Z,37.75
2023-01-22T05:42:59.029Z,38.45
2023-01-22T05:45:50.859Z,35.55
2023-01-22T05:49:01.360Z,46.25
2023-01-22T05:51:54.564Z,41.05
2023-01-22T05:54:44.894Z,42.65
2023-01-22T05:57:35.658Z,36.22
2023-01-22T06:00:26.598Z,39.28
2023-01-22T06:03:21.690Z,39.75
2023-01-22T06:06:15.337Z,42.22
2023-01-22T06:09:06.749Z,47.22
2023-01-22T06:12:00.189Z,43.03
2023-01-22T06:14:51.044Z,45.40
2023-01-22T06:17:41.109Z,39.83
2023-01-22T06:20:31.301Z,44.45
2023-01-22T06:23:22.752Z,39.05
2023-01-22T06:26:14.257Z,37.17
2023-01-22T06:29:06.443Z,50.00
2023-01-22T06:31:57.404Z,40.45
2023-01-22T06:34:47.798Z,42.20
2023-01-22T06:37:38.206Z,42.97
2023-01-22T06:40:29.040Z,46.05
2023-01-22T06:43:19.772Z,45.88
2023-01-22T06:46:12.894Z,40.67
2023-01-22T06:49:22.522Z,42.42
2023-01-22T06:52:12.401Z,40.50
2023-01-22T06:55:02.496Z,42.78
2023-01-22T06:57:56.616Z,43.00
2023-01-22T07:00:46.727Z,44.17
2023-01-22T07:03:36.801Z,45.65
2023-01-22T07:06:26.836Z,46.35
2023-01-22T07:09:16.699Z,47.33
2023-01-22T07:12:07.112Z,46.47
2023-01-22T07:14:57.190Z,46.72
2023-01-22T07:17:52.126Z,47.55
2023-01-22T07:20:43.065Z,49.30
2023-01-22T07:23:33.556Z,48.13
2023-01-22T07:26:23.830Z,52.25
2023-01-22T07:29:14.127Z,54.85
2023-01-22T07:32:04.889Z,44.58
2023-01-22T07:34:55.368Z,44.60
2023-01-22T07:37:56.919Z,52.08
2023-01-22T07:40:46.902Z,47.05
2023-01-22T07:43:36.875Z,57.45
2023-01-22T07:46:28.044Z,48.83
2023-01-22T07:49:18.231Z,52.47
2023-01-22T07:52:08.181Z,54.00
2023-01-22T07:54:58.455Z,52.72
2023-01-22T07:57:48.596Z,56.80
2023-01-22T08:00:39.123Z,56.33
2023-01-22T08:03:33.822Z,57.97
2023-01-22T08:06:23.832Z,66.00
2023-01-22T08:09:16.036Z,57.20
2023-01-22T08:12:07.175Z,56.00
2023-01-22T08:14:57.647Z,55.67
2023-01-22T08:17:50.335Z,55.42
2023-01-22T08:20:40.425Z,55.47
2023-01-22T08:23:30.385Z,52.53
2023-01-22T08:26:20.733Z,48.00
2023-01-22T08:29:10.852Z,56.63
2023-01-22T08:32:01.341Z,59.25
2023-01-22T08:34:54.296Z,49.65
2023-01-22T08:37:44.583Z,50.15
2023-01-22T08:40:36.585Z,48.15
2023-01-22T08:43:28.086Z,50.58
2023-01-22T08:46:17.974Z,52.60
2023-01-22T08:49:08.397Z,52.05
2023-01-22T08:51:58.939Z,47.42
2023-01-22T08:54:49.337Z,53.78
2023-01-22T08:57:39.995Z,51.78
2023-01-22T09:00:30.245Z,53.80
2023-01-22T09:03:23.477Z,52.83
2023-01-22T09:06:13.391Z,51.67
2023-01-22T09:09:04.282Z,50.65
2023-01-22T09:11:54.324Z,45.90
2023-01-22T09:14:44.499Z,53.50
2023-01-22T09:17:34.762Z,56.53
2023-01-22T09:20:24.629Z,50.30
2023-01-22T09:23:15.944Z,48.00
2023-01-22T09:26:05.903Z,55.75
2023-01-22T09:28:58.082Z,47.90
2023-01-22T09:31:48.875Z,49.60
2023-01-22T09:34:38.921Z,48.60
2023-01-22T09:37:29.334Z,48.67
2023-01-22T09:40:44.689Z,51.88
2023-01-22T09:43:40.891Z,46.53
2023-01-22T09:46:41.272Z,51.88
2023-01-22T09:49:38.347Z,49.33
2023-01-22T09:52:32.152Z,53.25
2023-01-22T09:55:25.161Z,58.45
2023-01-22T09:58:22.170Z,52.22
2023-01-22T10:01:12.414Z,52.45
2023-01-22T10:04:14.075Z,51.15
2023-01-22T10:07:24.043Z,51.92
2023-01-22T10:10:17.223Z,53.70
2023-01-22T10:13:16.371Z,49.35
2023-01-22T10:16:06.860Z,56.80
2023-01-22T10:19:19.381Z,46.53
2023-01-22T10:22:24.625Z,53.60
2023-01-22T10:25:16.596Z,43.00
2023-01-22T10:28:08.024Z,40.95
2023-01-22T10:30:59.061Z,43.60
2023-01-22T10:33:57.484Z,43.13
2023-01-22T10:36:53.115Z,46.80
2023-01-22T10:39:46.442Z,43.88
2023-01-22T10:42:36.374Z,40.30
2023-01-22T10:45:26.632Z,38.83
2023-01-22T10:48:18.121Z,38.90
2023-01-22T10:51:15.894Z,35.38
2023-01-22T10:54:34.816Z,37.38
2023-01-22T10:57:34.227Z,37.97
2023-01-22T11:00:51.536Z,39.33
2023-01-22T11:03:42.838Z,36.60
2023-01-22T11:06:40.771Z,33.28
2023-01-22T11:09:47.831Z,28.20
2023-01-22T11:12:41.447Z,29.50
2023-01-22T11:15:47.013Z,24.00
2023-01-22T11:18:40.819Z,33.10
2023-01-22T11:21:37.956Z,24.13
2023-01-22T11:24:47.097Z,23.92
2023-01-22T11:27:52.615Z,23.13
2023-01-22T11:31:01.667Z,26.10
2023-01-22T11:34:25.037Z,22.30
2023-01-22T11:37:27.357Z,16.83
2023-01-22T11:40:28.689Z,22.05
2023-01-22T11:43:37.950Z,22.00
2023-01-22T11:47:16.768Z,21.05
2023-01-22T11:50:23.034Z,24.27
2023-01-22T11:53:28.025Z,24.50
2023-01-22T11:56:44.930Z,33.03
2023-01-22T12:00:17.436Z,27.20
2023-01-22T12:03:21.580Z,18.98
2023-01-22T12:06:24.953Z,21.80
2023-01-22T12:09:33.366Z,19.23
2023-01-22T12:12:41.466Z,17.83
2023-01-22T12:15:39.283Z,17.70
2023-01-22T12:19:00.864Z,16.63
2023-01-22T12:22:10.872Z,17.33
2023-01-22T12:25:35.062Z,17.33
2023-01-22T12:28:34.529Z,19.40
2023-01-22T12:31:33.409Z,17.60
2023-01-22T12:34:34.866Z,17.35
2023-01-22T12:37:31.898Z,15.15
2023-01-22T12:40:47.257Z,16.38
2023-01-22T12:44:03.183Z,17.00
2023-01-22T12:47:08.326Z,17.10
2023-01-22T12:49:58.516Z,14.98
2023-01-22T12:53:04.405Z,17.35
2023-01-22T12:56:00.892Z,18.33
2023-01-22T12:58:56.937Z,20.60
2023-01-22T13:01:46.737Z,16.83
2023-01-22T13:04:36.735Z,18.63
2023-01-22T13:07:29.956Z,15.90
2023-01-22T13:10:20.382Z,14.70
2023-01-22T13:13:33.608Z,15.18
2023-01-22T13:16:37.812Z,15.60
2023-01-22T13:19:32.177Z,15.77
2023-01-22T13:22:25.153Z,16.80
2023-01-22T13:25:31.130Z,14.65
2023-01-22T13:28:22.547Z,15.43
2023-01-22T13:31:16.926Z,13.15
2023-01-22T13:34:15.644Z,12.60
2023-01-22T13:37:06.813Z,15.65
2023-01-22T13:39:57.125Z,13.88
2023-01-22T13:42:47.237Z,14.32
2023-01-22T13:45:39.974Z,56.88
2023-01-22T13:48:30.621Z,14.35
2023-01-22T13:51:21.762Z,12.82
2023-01-22T13:54:24.177Z,17.30
2023-01-22T13:57:16.843Z,13.85
2023-01-22T14:00:31.247Z,13.00
2023-01-22T14:03:25.749Z,11.45
2023-01-22T14:06:16.150Z,14.35
2023-01-22T14:09:07.982Z,14.48
2023-01-22T14:11:59.304Z,12.20
2023-01-22T14:14:49.701Z,12.05
2023-01-22T14:17:39.952Z,11.80
2023-01-22T14:20:30.180Z,10.60
2023-01-22T14:23:19.894Z,11.77
2023-01-22T14:26:10.123Z,12.73
2023-01-22T14:29:00.192Z,10.50
2023-01-22T14:31:50.712Z,12.00
2023-01-22T14:34:41.090Z,11.50
2023-01-22T14:37:30.967Z,12.55
2023-01-22T14:40:22.852Z,11.98
2023-01-22T14:43:12.715Z,12.13
2023-01-22T14:46:07.130Z,11.27
2023-01-22T14:49:01.655Z,13.07
2023-01-22T14:51:54.774Z,12.63
2023-01-22T14:54:45.213Z,11.88
2023-01-22T14:57:35.688Z,10.52
2023-01-22T15:00:26.392Z,12.40
2023-01-22T15:03:16.743Z,13.90
2023-01-22T15:06:06.943Z,11.75
2023-01-22T15:08:57.417Z,11.23
2023-01-22T15:11:47.692Z,12.23
2023-01-22T15:14:38.025Z,12.18
2023-01-22T15:17:28.320Z,12.80
2023-01-22T15:20:20.772Z,13.90
2023-01-22T15:23:17.576Z,11.02
2023-01-22T15:26:22.040Z,12.18
2023-01-22T15:29:14.042Z,13.95
2023-01-22T15:32:04.523Z,15.43
2023-01-22T15:34:54.590Z,12.75
2023-01-22T15:37:45.126Z,12.90
2023-01-22T15:40:38.800Z,11.30
2023-01-22T15:43:28.763Z,13.15
2023-01-22T15:46:26.738Z,13.80
2023-01-22T15:49:18.139Z,14.20
2023-01-22T15:52:08.164Z,13.27
2023-01-22T15:54:57.963Z,15.40
2023-01-22T15:57:48.290Z,14.80
2023-01-22T16:00:38.252Z,12.80
2023-01-22T16:03:28.238Z,11.57
2023-01-22T16:06:22.742Z,13.43
2023-01-22T16:09:12.584Z,14.20
2023-01-22T16:12:02.627Z,14.68
2023-01-22T16:14:52.925Z,13.30
2023-01-22T16:17:42.863Z,15.43
2023-01-22T16:20:32.841Z,16.15
2023-01-22T16:23:22.814Z,15.60
2023-01-22T16:26:18.963Z,14.02
2023-01-22T16:29:10.576Z,14.30
2023-01-22T16:32:00.872Z,14.50
2023-01-22T16:34:50.816Z,14.00
2023-01-22T16:37:43.949Z,15.07
2023-01-22T16:40:33.747Z,15.57
2023-01-22T16:43:23.503Z,16.55
2023-01-22T16:46:14.505Z,12.82
2023-01-22T16:49:07.724Z,15.48
2023-01-22T16:52:12.991Z,15.63
2023-01-22T16:55:11.385Z,14.50
2023-01-22T16:58:01.553Z,16.92
2023-01-22T17:00:51.553Z,15.05
2023-01-22T17:03:42.046Z,19.20
2023-01-22T17:06:48.115Z,16.55
2023-01-22T17:09:38.173Z,21.80
2023-01-22T17:12:28.372Z,16.42
2023-01-22T17:15:19.259Z,18.58
2023-01-22T17:18:09.910Z,18.02
2023-01-22T17:21:07.348Z,21.02
2023-01-22T17:23:57.491Z,15.68
2023-01-22T17:26:48.434Z,15.98
2023-01-22T17:29:38.507Z,18.02
2023-01-22T17:32:28.962Z,17.48
2023-01-22T17:35:19.142Z,14.93
2023-01-22T17:38:10.500Z,14.93
2023-01-22T17:41:16.126Z,19.88
2023-01-22T17:44:06.056Z,26.00
2023-01-22T17:46:59.496Z,19.65
2023-01-22T17:49:49.482Z,17.27
2023-01-22T17:52:40.099Z,19.27
2023-01-22T17:55:29.965Z,18.50
2023-01-22T17:58:20.069Z,16.02
2023-01-22T18:01:12.560Z,12.25
2023-01-22T18:04:06.346Z,17.25
2023-01-22T18:06:56.536Z,12.18
2023-01-22T18:09:46.874Z,16.05
2023-01-22T18:12:37.080Z,22.20
2023-01-22T18:15:27.006Z,28.38
2023-01-22T18:18:18.287Z,17.35
2023-01-22T18:21:14.085Z,14.48
2023-01-22T18:24:06.682Z,20.25
2023-01-22T18:26:58.616Z,12.30
2023-01-22T18:29:48.617Z,13.43
2023-01-22T18:32:39.160Z,15.85
2023-01-22T18:35:29.444Z,12.50
2023-01-22T18:38:26.179Z,15.00
2023-01-22T18:41:23.772Z,14.55
2023-01-22T18:44:16.110Z,13.10
2023-01-22T18:47:11.055Z,14.00
2023-01-22T18:50:01.400Z,13.20
2023-01-22T18:52:51.387Z,13.23
2023-01-22T18:55:41.300Z,20.35
2023-01-22T18:58:34.019Z,15.30
2023-01-22T19:01:29.564Z,14.23
2023-01-22T19:04:21.800Z,15.20
2023-01-22T19:07:12.076Z,16.83
2023-01-22T19:10:03.258Z,18.55
2023-01-22T19:12:53.078Z,18.38
2023-01-22T19:15:44.222Z,21.33
2023-01-22T19:18:35.196Z,35.17
2023-01-22T19:21:26.816Z,27.25
2023-01-22T19:24:19.318Z,27.85
2023-01-22T19:27:09.792Z,20.42
2023-01-22T19:30:00.637Z,29.58
2023-01-22T19:32:55.603Z,21.40
2023-01-22T19:35:49.531Z,21.77
2023-01-22T19:38:39.812Z,19.60
2023-01-22T19:41:30.499Z,29.17
2023-01-22T19:44:21.116Z,39.55
2023-01-22T19:47:11.456Z,23.50
2023-01-22T19:50:01.475Z,27.20
2023-01-22T19:52:51.960Z,21.95
2023-01-22T19:55:41.981Z,24.83
2023-01-22T19:58:32.134Z,44.95
2023-01-22T20:01:22.931Z,21.42
2023-01-22T20:04:25.015Z,33.58
2023-01-22T20:07:15.033Z,33.05
2023-01-22T20:10:05.561Z,24.52
2023-01-22T20:12:55.503Z,40.47
2023-01-22T20:15:45.464Z,21.00
2023-01-22T20:18:35.446Z,21.60
2023-01-22T20:21:26.984Z,20.08
2023-01-22T20:24:17.173Z,24.73
2023-01-22T20:27:08.436Z,16.48
2023-01-22T20:29:58.672Z,29.98
2023-01-22T20:32:48.721Z,36.85
2023-01-22T20:35:42.398Z,42.83
2023-01-22T20:38:32.590Z,47.80
2023-01-22T20:41:24.244Z,37.22
2023-01-22T20:44:15.909Z,32.55
2023-01-22T20:47:06.474Z,49.13
2023-01-22T20:49:56.635Z,78.53
2023-01-22T20:52:46.478Z,38.22
2023-01-22T20:55:36.291Z,23.80
2023-01-22T20:58:26.984Z,22.98
2023-01-22T21:01:19.278Z,36.95
2023-01-22T21:04:11.196Z,34.40
2023-01-22T21:07:01.432Z,21.65
2023-01-22T21:09:51.729Z,25.67
2023-01-22T21:12:42.420Z,25.45
2023-01-22T21:15:33.614Z,24.35
2023-01-22T21:18:23.844Z,20.38
2023-01-22T21:21:20.820Z,28.50
2023-01-22T21:24:12.150Z,22.38
2023-01-22T21:27:02.537Z,23.10
2023-01-22T21:29:52.723Z,22.48
2023-01-22T21:32:42.987Z,32.42
2023-01-22T21:35:33.238Z,27.58
2023-01-22T21:38:23.032Z,24.45
2023-01-22T21:41:16.974Z,25.15
2023-01-22T21:44:26.026Z,29.70
2023-01-22T21:47:16.183Z,29.73
2023-01-22T21:50:06.658Z,30.88
2023-01-22T21:52:56.935Z,39.35
2023-01-22T21:55:52.413Z,31.45
2023-01-22T21:58:45.325Z,29.20
2023-01-22T22:01:36.430Z,23.83
2023-01-22T22:04:27.278Z,39.05
2023-01-22T22:07:18.137Z,25.92
2023-01-22T22:10:12.565Z,22.98
2023-01-22T22:13:02.621Z,24.33
2023-01-22T22:15:52.749Z,28.52
2023-01-22T22:18:42.687Z,37.35
2023-01-22T22:21:32.625Z,29.95
2023-01-22T22:24:22.634Z,24.85
2023-01-22T22:27:12.648Z,41.75
2023-01-22T22:30:02.395Z,35.75
2023-01-22T22:32:54.532Z,31.73
2023-01-22T22:35:46.311Z,30.88
2023-01-22T22:38:37.133Z,33.90
2023-01-22T22:41:30.508Z,26.80
2023-01-22T22:44:20.523Z,33.17
2023-01-22T22:47:11.339Z,25.08
2023-01-22T22:50:01.095Z,27.60
2023-01-22T22:52:50.876Z,25.40
2023-01-22T22:55:41.776Z,21.83
2023-01-22T22:58:32.836Z,23.92
2023-01-22T23:01:24.595Z,24.95
2023-01-22T23:04:14.538Z,24.65
2023-01-22T23:07:04.798Z,25.55
2023-01-22T23:09:55.137Z,24.95
2023-01-22T23:12:45.272Z,22.38
2023-01-22T23:15:35.190Z,26.60
2023-01-22T23:18:26.007Z,25.83
2023-01-22T23:21:21.878Z,27.58
2023-01-22T23:24:13.696Z,22.40
2023-01-22T23:27:04.415Z,25.73
2023-01-22T23:29:54.339Z,28.30
2023-01-22T23:32:44.416Z,25.83
2023-01-22T23:35:35.007Z,26.40
2023-01-22T23:38:24.955Z,24.23
2023-01-22T23:41:16.631Z,27.50
2023-01-22T23:44:06.766Z,28.15
2023-01-22T23:46:56.984Z,24.85
2023-01-22T23:49:47.152Z,25.83
2023-01-22T23:52:37.657Z,24.35
2023-01-22T23:55:27.821Z,25.27
2023-01-22T23:58:17.947Z,31.40
